sensor_id;sensor_type;location;lat;lon;timestamp;P1;durP1;ratioP1;P2;durP2;ratioP2
15340;SDS011;7770;52.158;5.372;2022-07-25T00:00:14;7.23;;;6.50;;
15340;SDS011;7770;52.158;5.372;2022-07-25T00:03:00;7.70;;;7.00;;
15340;SDS011;7770;52.158;5.372;2022-07-25T00:05:47;8.90;;;7.27;;
15340;SDS011;7770;52.158;5.372;2022-07-25T00:08:33;7.77;;;6.97;;
15340;SDS011;7770;52.158;5.372;2022-07-25T00:11:19;7.63;;;6.93;;
15340;SDS011;7770;52.158;5.372;2022-07-25T00:14:05;7.83;;;7.10;;
15340;SDS011;7770;52.158;5.372;2022-07-25T00:16:51;7.70;;;7.07;;
15340;SDS011;7770;52.158;5.372;2022-07-25T00:19:37;7.80;;;7.10;;
15340;SDS011;7770;52.158;5.372;2022-07-25T00:22:23;9.23;;;7.97;;
15340;SDS011;7770;52.158;5.372;2022-07-25T00:25:09;7.80;;;7.17;;
15340;SDS011;7770;52.158;5.372;2022-07-25T00:27:55;8.87;;;7.97;;
15340;SDS011;7770;52.158;5.372;2022-07-25T00:30:41;8.60;;;7.80;;
15340;SDS011;7770;52.158;5.372;2022-07-25T00:33:28;8.73;;;7.83;;
15340;SDS011;7770;52.158;5.372;2022-07-25T00:36:14;9.33;;;8.43;;
15340;SDS011;7770;52.158;5.372;2022-07-25T00:39:00;8.57;;;7.87;;
15340;SDS011;7770;52.158;5.372;2022-07-25T00:41:46;9.27;;;8.47;;
15340;SDS011;7770;52.158;5.372;2022-07-25T00:44:32;9.70;;;8.70;;
15340;SDS011;7770;52.158;5.372;2022-07-25T00:47:18;9.53;;;8.73;;
15340;SDS011;7770;52.158;5.372;2022-07-25T00:50:04;10.20;;;8.87;;
15340;SDS011;7770;52.158;5.372;2022-07-25T00:52:51;9.97;;;8.73;;
15340;SDS011;7770;52.158;5.372;2022-07-25T00:55:37;10.23;;;9.03;;
15340;SDS011;7770;52.158;5.372;2022-07-25T00:58:23;9.57;;;8.70;;
15340;SDS011;7770;52.158;5.372;2022-07-25T01:01:09;9.97;;;8.97;;
15340;SDS011;7770;52.158;5.372;2022-07-25T01:03:55;10.10;;;9.20;;
15340;SDS011;7770;52.158;5.372;2022-07-25T01:06:42;10.63;;;9.53;;
15340;SDS011;7770;52.158;5.372;2022-07-25T01:09:28;10.00;;;9.20;;
15340;SDS011;7770;52.158;5.372;2022-07-25T01:12:15;11.33;;;9.90;;
15340;SDS011;7770;52.158;5.372;2022-07-25T01:15:01;12.33;;;10.00;;
15340;SDS011;7770;52.158;5.372;2022-07-25T01:17:47;10.53;;;9.60;;
15340;SDS011;7770;52.158;5.372;2022-07-25T01:20:34;14.53;;;9.50;;
15340;SDS011;7770;52.158;5.372;2022-07-25T01:23:20;11.67;;;10.40;;
15340;SDS011;7770;52.158;5.372;2022-07-25T01:26:06;12.33;;;10.63;;
15340;SDS011;7770;52.158;5.372;2022-07-25T01:28:52;11.80;;;10.70;;
15340;SDS011;7770;52.158;5.372;2022-07-25T01:31:39;10.77;;;9.83;;
15340;SDS011;7770;52.158;5.372;2022-07-25T01:34:25;12.13;;;9.73;;
15340;SDS011;7770;52.158;5.372;2022-07-25T01:37:11;10.00;;;9.00;;
15340;SDS011;7770;52.158;5.372;2022-07-25T01:39:57;9.87;;;8.93;;
15340;SDS011;7770;52.158;5.372;2022-07-25T01:42:43;9.97;;;8.90;;
15340;SDS011;7770;52.158;5.372;2022-07-25T01:45:29;9.33;;;8.43;;
15340;SDS011;7770;52.158;5.372;2022-07-25T01:48:15;9.43;;;8.53;;
15340;SDS011;7770;52.158;5.372;2022-07-25T01:51:01;9.57;;;8.60;;
15340;SDS011;7770;52.158;5.372;2022-07-25T01:53:47;9.83;;;8.70;;
15340;SDS011;7770;52.158;5.372;2022-07-25T01:56:33;9.60;;;8.73;;
15340;SDS011;7770;52.158;5.372;2022-07-25T01:59:19;9.27;;;8.43;;
15340;SDS011;7770;52.158;5.372;2022-07-25T02:02:06;9.43;;;8.40;;
15340;SDS011;7770;52.158;5.372;2022-07-25T02:04:53;9.20;;;8.27;;
15340;SDS011;7770;52.158;5.372;2022-07-25T02:07:39;9.47;;;8.27;;
15340;SDS011;7770;52.158;5.372;2022-07-25T02:10:25;9.10;;;8.30;;
15340;SDS011;7770;52.158;5.372;2022-07-25T02:13:11;9.17;;;8.27;;
15340;SDS011;7770;52.158;5.372;2022-07-25T02:15:57;9.60;;;8.70;;
15340;SDS011;7770;52.158;5.372;2022-07-25T02:18:43;8.67;;;7.90;;
15340;SDS011;7770;52.158;5.372;2022-07-25T02:21:30;9.73;;;8.73;;
15340;SDS011;7770;52.158;5.372;2022-07-25T02:24:16;9.07;;;8.03;;
15340;SDS011;7770;52.158;5.372;2022-07-25T02:27:03;9.57;;;8.77;;
15340;SDS011;7770;52.158;5.372;2022-07-25T02:29:49;10.37;;;9.40;;
15340;SDS011;7770;52.158;5.372;2022-07-25T02:32:35;10.07;;;8.97;;
15340;SDS011;7770;52.158;5.372;2022-07-25T02:35:21;10.27;;;9.27;;
15340;SDS011;7770;52.158;5.372;2022-07-25T02:38:07;10.43;;;9.53;;
15340;SDS011;7770;52.158;5.372;2022-07-25T02:40:53;11.50;;;10.30;;
15340;SDS011;7770;52.158;5.372;2022-07-25T02:43:39;11.83;;;10.73;;
15340;SDS011;7770;52.158;5.372;2022-07-25T02:46:25;14.13;;;11.13;;
15340;SDS011;7770;52.158;5.372;2022-07-25T02:49:11;12.87;;;11.67;;
15340;SDS011;7770;52.158;5.372;2022-07-25T02:51:57;12.20;;;11.07;;
15340;SDS011;7770;52.158;5.372;2022-07-25T02:54:43;13.60;;;11.33;;
15340;SDS011;7770;52.158;5.372;2022-07-25T02:57:29;12.00;;;10.80;;
15340;SDS011;7770;52.158;5.372;2022-07-25T03:00:15;12.80;;;11.67;;
15340;SDS011;7770;52.158;5.372;2022-07-25T03:03:02;12.17;;;11.07;;
15340;SDS011;7770;52.158;5.372;2022-07-25T03:05:48;12.27;;;10.97;;
15340;SDS011;7770;52.158;5.372;2022-07-25T03:08:34;12.83;;;11.53;;
15340;SDS011;7770;52.158;5.372;2022-07-25T03:11:20;12.37;;;11.27;;
15340;SDS011;7770;52.158;5.372;2022-07-25T03:14:06;13.13;;;11.60;;
15340;SDS011;7770;52.158;5.372;2022-07-25T03:16:53;13.17;;;11.87;;
15340;SDS011;7770;52.158;5.372;2022-07-25T03:19:39;12.83;;;11.73;;
15340;SDS011;7770;52.158;5.372;2022-07-25T03:22:25;13.53;;;11.80;;
15340;SDS011;7770;52.158;5.372;2022-07-25T03:25:11;14.17;;;12.67;;
15340;SDS011;7770;52.158;5.372;2022-07-25T03:27:57;13.40;;;12.10;;
15340;SDS011;7770;52.158;5.372;2022-07-25T03:30:43;13.63;;;12.23;;
15340;SDS011;7770;52.158;5.372;2022-07-25T03:33:30;13.37;;;12.17;;
15340;SDS011;7770;52.158;5.372;2022-07-25T03:36:16;13.93;;;12.53;;
15340;SDS011;7770;52.158;5.372;2022-07-25T03:39:02;12.90;;;11.70;;
15340;SDS011;7770;52.158;5.372;2022-07-25T03:41:48;13.97;;;12.47;;
15340;SDS011;7770;52.158;5.372;2022-07-25T03:44:34;13.87;;;12.67;;
15340;SDS011;7770;52.158;5.372;2022-07-25T03:47:22;15.10;;;13.50;;
15340;SDS011;7770;52.158;5.372;2022-07-25T03:50:08;14.30;;;12.80;;
15340;SDS011;7770;52.158;5.372;2022-07-25T03:52:54;14.63;;;13.23;;
15340;SDS011;7770;52.158;5.372;2022-07-25T03:55:40;13.70;;;12.33;;
15340;SDS011;7770;52.158;5.372;2022-07-25T03:58:26;14.90;;;13.53;;
15340;SDS011;7770;52.158;5.372;2022-07-25T04:01:12;15.10;;;13.50;;
15340;SDS011;7770;52.158;5.372;2022-07-25T04:03:58;15.37;;;13.93;;
15340;SDS011;7770;52.158;5.372;2022-07-25T04:06:45;14.93;;;13.43;;
15340;SDS011;7770;52.158;5.372;2022-07-25T04:09:32;14.90;;;13.40;;
15340;SDS011;7770;52.158;5.372;2022-07-25T04:12:17;14.37;;;13.03;;
15340;SDS011;7770;52.158;5.372;2022-07-25T04:15:04;14.40;;;12.90;;
15340;SDS011;7770;52.158;5.372;2022-07-25T04:17:50;13.67;;;11.90;;
15340;SDS011;7770;52.158;5.372;2022-07-25T04:20:36;13.73;;;12.40;;
15340;SDS011;7770;52.158;5.372;2022-07-25T04:23:23;12.67;;;11.57;;
15340;SDS011;7770;52.158;5.372;2022-07-25T04:26:09;13.60;;;12.30;;
15340;SDS011;7770;52.158;5.372;2022-07-25T04:28:55;14.03;;;12.50;;
15340;SDS011;7770;52.158;5.372;2022-07-25T04:31:42;13.07;;;11.97;;
15340;SDS011;7770;52.158;5.372;2022-07-25T04:34:28;13.43;;;12.23;;
15340;SDS011;7770;52.158;5.372;2022-07-25T04:37:14;12.03;;;10.93;;
15340;SDS011;7770;52.158;5.372;2022-07-25T04:40:00;12.73;;;10.77;;
15340;SDS011;7770;52.158;5.372;2022-07-25T04:42:47;12.17;;;11.17;;
15340;SDS011;7770;52.158;5.372;2022-07-25T04:45:33;12.30;;;10.77;;
15340;SDS011;7770;52.158;5.372;2022-07-25T04:48:19;11.73;;;10.70;;
15340;SDS011;7770;52.158;5.372;2022-07-25T04:51:05;11.10;;;10.10;;
15340;SDS011;7770;52.158;5.372;2022-07-25T04:53:52;12.17;;;10.93;;
15340;SDS011;7770;52.158;5.372;2022-07-25T04:56:38;12.10;;;10.03;;
15340;SDS011;7770;52.158;5.372;2022-07-25T04:59:24;10.93;;;9.93;;
15340;SDS011;7770;52.158;5.372;2022-07-25T05:02:10;12.13;;;10.97;;
15340;SDS011;7770;52.158;5.372;2022-07-25T05:04:56;11.90;;;10.80;;
15340;SDS011;7770;52.158;5.372;2022-07-25T05:07:42;11.97;;;10.10;;
15340;SDS011;7770;52.158;5.372;2022-07-25T05:10:28;12.40;;;11.03;;
15340;SDS011;7770;52.158;5.372;2022-07-25T05:13:14;12.13;;;10.60;;
15340;SDS011;7770;52.158;5.372;2022-07-25T05:16:00;11.60;;;10.50;;
15340;SDS011;7770;52.158;5.372;2022-07-25T05:18:47;11.83;;;10.80;;
15340;SDS011;7770;52.158;5.372;2022-07-25T05:21:33;12.70;;;11.13;;
15340;SDS011;7770;52.158;5.372;2022-07-25T05:24:19;12.83;;;11.67;;
15340;SDS011;7770;52.158;5.372;2022-07-25T05:27:07;12.27;;;11.17;;
15340;SDS011;7770;52.158;5.372;2022-07-25T05:29:53;12.20;;;11.10;;
15340;SDS011;7770;52.158;5.372;2022-07-25T05:32:39;12.07;;;10.87;;
15340;SDS011;7770;52.158;5.372;2022-07-25T05:35:25;11.67;;;10.60;;
15340;SDS011;7770;52.158;5.372;2022-07-25T05:38:12;12.23;;;11.13;;
15340;SDS011;7770;52.158;5.372;2022-07-25T05:40:58;12.70;;;11.30;;
15340;SDS011;7770;52.158;5.372;2022-07-25T05:43:44;12.43;;;11.30;;
15340;SDS011;7770;52.158;5.372;2022-07-25T05:46:32;12.63;;;11.38;;
15340;SDS011;7770;52.158;5.372;2022-07-25T05:49:19;13.00;;;11.65;;
15340;SDS011;7770;52.158;5.372;2022-07-25T05:52:05;12.25;;;11.15;;
15340;SDS011;7770;52.158;5.372;2022-07-25T05:54:51;12.25;;;11.25;;
15340;SDS011;7770;52.158;5.372;2022-07-25T05:57:37;12.57;;;11.10;;
15340;SDS011;7770;52.158;5.372;2022-07-25T06:00:23;12.82;;;11.52;;
15340;SDS011;7770;52.158;5.372;2022-07-25T06:03:10;11.95;;;10.75;;
15340;SDS011;7770;52.158;5.372;2022-07-25T06:05:56;13.00;;;11.80;;
15340;SDS011;7770;52.158;5.372;2022-07-25T06:08:42;12.50;;;11.40;;
15340;SDS011;7770;52.158;5.372;2022-07-25T06:11:28;12.38;;;11.05;;
15340;SDS011;7770;52.158;5.372;2022-07-25T06:14:15;13.15;;;11.77;;
15340;SDS011;7770;52.158;5.372;2022-07-25T06:17:02;12.50;;;11.40;;
15340;SDS011;7770;52.158;5.372;2022-07-25T06:19:48;12.90;;;11.63;;
15340;SDS011;7770;52.158;5.372;2022-07-25T06:22:34;12.38;;;11.25;;
15340;SDS011;7770;52.158;5.372;2022-07-25T06:25:21;13.70;;;12.32;;
15340;SDS011;7770;52.158;5.372;2022-07-25T06:28:07;13.98;;;11.68;;
15340;SDS011;7770;52.158;5.372;2022-07-25T06:30:53;11.95;;;10.85;;
15340;SDS011;7770;52.158;5.372;2022-07-25T06:33:39;10.70;;;9.70;;
15340;SDS011;7770;52.158;5.372;2022-07-25T06:36:25;9.20;;;8.40;;
15340;SDS011;7770;52.158;5.372;2022-07-25T06:39:11;8.63;;;7.80;;
15340;SDS011;7770;52.158;5.372;2022-07-25T06:41:57;10.38;;;7.45;;
15340;SDS011;7770;52.158;5.372;2022-07-25T06:44:44;7.65;;;6.95;;
15340;SDS011;7770;52.158;5.372;2022-07-25T06:47:30;8.15;;;7.00;;
15340;SDS011;7770;52.158;5.372;2022-07-25T06:50:17;7.10;;;6.43;;
15340;SDS011;7770;52.158;5.372;2022-07-25T06:53:03;6.15;;;5.55;;
15340;SDS011;7770;52.158;5.372;2022-07-25T06:55:49;5.55;;;5.05;;
15340;SDS011;7770;52.158;5.372;2022-07-25T06:58:35;7.70;;;6.00;;
15340;SDS011;7770;52.158;5.372;2022-07-25T07:01:21;6.22;;;5.68;;
15340;SDS011;7770;52.158;5.372;2022-07-25T07:04:07;5.25;;;4.80;;
15340;SDS011;7770;52.158;5.372;2022-07-25T07:06:53;7.30;;;4.78;;
15340;SDS011;7770;52.158;5.372;2022-07-25T07:09:39;4.72;;;4.22;;
15340;SDS011;7770;52.158;5.372;2022-07-25T07:12:25;4.00;;;3.60;;
15340;SDS011;7770;52.158;5.372;2022-07-25T07:15:12;4.68;;;3.92;;
15340;SDS011;7770;52.158;5.372;2022-07-25T07:17:58;4.72;;;3.95;;
15340;SDS011;7770;52.158;5.372;2022-07-25T07:20:45;4.05;;;3.72;;
15340;SDS011;7770;52.158;5.372;2022-07-25T07:23:31;5.05;;;4.00;;
15340;SDS011;7770;52.158;5.372;2022-07-25T07:26:17;5.57;;;4.03;;
15340;SDS011;7770;52.158;5.372;2022-07-25T07:29:03;4.50;;;3.60;;
15340;SDS011;7770;52.158;5.372;2022-07-25T07:31:49;5.93;;;3.58;;
15340;SDS011;7770;52.158;5.372;2022-07-25T07:34:35;4.07;;;3.25;;
15340;SDS011;7770;52.158;5.372;2022-07-25T07:37:22;3.92;;;3.50;;
15340;SDS011;7770;52.158;5.372;2022-07-25T07:40:08;3.25;;;3.00;;
15340;SDS011;7770;52.158;5.372;2022-07-25T07:42:54;4.22;;;2.80;;
15340;SDS011;7770;52.158;5.372;2022-07-25T07:45:42;5.03;;;3.10;;
15340;SDS011;7770;52.158;5.372;2022-07-25T07:48:29;3.95;;;2.60;;
15340;SDS011;7770;52.158;5.372;2022-07-25T07:51:16;3.47;;;2.80;;
15340;SDS011;7770;52.158;5.372;2022-07-25T07:54:02;6.05;;;2.83;;
15340;SDS011;7770;52.158;5.372;2022-07-25T07:57:07;3.10;;;2.80;;
15340;SDS011;7770;52.158;5.372;2022-07-25T07:59:53;4.30;;;2.80;;
15340;SDS011;7770;52.158;5.372;2022-07-25T08:02:43;5.10;;;2.60;;
15340;SDS011;7770;52.158;5.372;2022-07-25T08:05:37;3.03;;;2.28;;
15340;SDS011;7770;52.158;5.372;2022-07-25T08:08:26;4.38;;;2.80;;
15340;SDS011;7770;52.158;5.372;2022-07-25T08:11:12;5.03;;;2.13;;
15340;SDS011;7770;52.158;5.372;2022-07-25T08:13:58;4.18;;;1.90;;
15340;SDS011;7770;52.158;5.372;2022-07-25T08:16:44;3.35;;;2.10;;
15340;SDS011;7770;52.158;5.372;2022-07-25T08:19:30;2.03;;;1.83;;
15340;SDS011;7770;52.158;5.372;2022-07-25T08:22:16;2.30;;;2.10;;
15340;SDS011;7770;52.158;5.372;2022-07-25T08:25:02;4.05;;;1.90;;
15340;SDS011;7770;52.158;5.372;2022-07-25T08:27:49;3.00;;;2.08;;
15340;SDS011;7770;52.158;5.372;2022-07-25T08:30:35;2.45;;;2.13;;
15340;SDS011;7770;52.158;5.372;2022-07-25T08:33:23;3.00;;;2.05;;
15340;SDS011;7770;52.158;5.372;2022-07-25T08:36:10;2.55;;;2.10;;
15340;SDS011;7770;52.158;5.372;2022-07-25T08:38:56;3.53;;;2.60;;
15340;SDS011;7770;52.158;5.372;2022-07-25T08:41:42;3.92;;;2.30;;
15340;SDS011;7770;52.158;5.372;2022-07-25T08:44:29;3.15;;;2.20;;
15340;SDS011;7770;52.158;5.372;2022-07-25T08:47:23;2.78;;;2.03;;
15340;SDS011;7770;52.158;5.372;2022-07-25T08:50:10;3.63;;;2.00;;
15340;SDS011;7770;52.158;5.372;2022-07-25T08:52:59;2.83;;;2.10;;
15340;SDS011;7770;52.158;5.372;2022-07-25T08:55:46;3.47;;;2.10;;
15340;SDS011;7770;52.158;5.372;2022-07-25T08:58:32;4.63;;;2.10;;
15340;SDS011;7770;52.158;5.372;2022-07-25T09:01:18;3.63;;;1.95;;
15340;SDS011;7770;52.158;5.372;2022-07-25T09:04:04;4.70;;;2.20;;
15340;SDS011;7770;52.158;5.372;2022-07-25T09:06:56;3.58;;;1.98;;
15340;SDS011;7770;52.158;5.372;2022-07-25T09:09:42;3.45;;;2.10;;
15340;SDS011;7770;52.158;5.372;2022-07-25T09:12:28;4.50;;;2.00;;
15340;SDS011;7770;52.158;5.372;2022-07-25T09:15:26;2.53;;;2.03;;
15340;SDS011;7770;52.158;5.372;2022-07-25T09:18:21;3.17;;;2.13;;
15340;SDS011;7770;52.158;5.372;2022-07-25T09:21:11;3.80;;;2.63;;
15340;SDS011;7770;52.158;5.372;2022-07-25T09:24:06;3.08;;;2.47;;
15340;SDS011;7770;52.158;5.372;2022-07-25T09:26:57;4.43;;;2.45;;
15340;SDS011;7770;52.158;5.372;2022-07-25T09:29:45;5.28;;;2.10;;
15340;SDS011;7770;52.158;5.372;2022-07-25T09:32:31;3.40;;;2.30;;
15340;SDS011;7770;52.158;5.372;2022-07-25T09:35:28;5.07;;;2.50;;
15340;SDS011;7770;52.158;5.372;2022-07-25T09:38:20;3.33;;;2.40;;
15340;SDS011;7770;52.158;5.372;2022-07-25T09:41:08;5.45;;;2.83;;
15340;SDS011;7770;52.158;5.372;2022-07-25T09:43:54;3.47;;;2.63;;
15340;SDS011;7770;52.158;5.372;2022-07-25T09:46:40;6.13;;;2.78;;
15340;SDS011;7770;52.158;5.372;2022-07-25T09:49:48;4.50;;;2.50;;
15340;SDS011;7770;52.158;5.372;2022-07-25T09:52:34;2.95;;;2.53;;
15340;SDS011;7770;52.158;5.372;2022-07-25T09:55:21;3.42;;;2.47;;
15340;SDS011;7770;52.158;5.372;2022-07-25T09:58:08;4.00;;;2.40;;
15340;SDS011;7770;52.158;5.372;2022-07-25T10:01:04;3.63;;;2.30;;
15340;SDS011;7770;52.158;5.372;2022-07-25T10:03:52;3.35;;;2.35;;
15340;SDS011;7770;52.158;5.372;2022-07-25T10:06:54;3.95;;;2.20;;
15340;SDS011;7770;52.158;5.372;2022-07-25T10:09:53;5.57;;;2.90;;
15340;SDS011;7770;52.158;5.372;2022-07-25T10:12:40;5.43;;;3.00;;
15340;SDS011;7770;52.158;5.372;2022-07-25T10:15:37;4.18;;;2.25;;
15340;SDS011;7770;52.158;5.372;2022-07-25T10:18:45;6.32;;;2.92;;
15340;SDS011;7770;52.158;5.372;2022-07-25T10:21:34;6.70;;;3.20;;
15340;SDS011;7770;52.158;5.372;2022-07-25T10:24:20;2.88;;;2.50;;
15340;SDS011;7770;52.158;5.372;2022-07-25T10:27:21;6.15;;;2.78;;
15340;SDS011;7770;52.158;5.372;2022-07-25T10:30:18;5.88;;;2.58;;
15340;SDS011;7770;52.158;5.372;2022-07-25T10:33:23;3.17;;;2.50;;
15340;SDS011;7770;52.158;5.372;2022-07-25T10:36:10;3.65;;;2.60;;
15340;SDS011;7770;52.158;5.372;2022-07-25T10:38:56;5.13;;;2.67;;
15340;SDS011;7770;52.158;5.372;2022-07-25T10:41:49;4.80;;;2.85;;
15340;SDS011;7770;52.158;5.372;2022-07-25T10:44:44;3.33;;;2.72;;
15340;SDS011;7770;52.158;5.372;2022-07-25T10:47:35;3.90;;;2.97;;
15340;SDS011;7770;52.158;5.372;2022-07-25T10:50:24;5.25;;;3.10;;
15340;SDS011;7770;52.158;5.372;2022-07-25T10:53:11;5.65;;;3.25;;
15340;SDS011;7770;52.158;5.372;2022-07-25T10:55:57;6.57;;;3.17;;
15340;SDS011;7770;52.158;5.372;2022-07-25T10:58:59;4.80;;;3.00;;
15340;SDS011;7770;52.158;5.372;2022-07-25T11:01:46;4.03;;;2.60;;
15340;SDS011;7770;52.158;5.372;2022-07-25T11:04:35;5.38;;;3.10;;
15340;SDS011;7770;52.158;5.372;2022-07-25T11:07:21;4.88;;;2.90;;
15340;SDS011;7770;52.158;5.372;2022-07-25T11:10:07;6.55;;;3.53;;
15340;SDS011;7770;52.158;5.372;2022-07-25T11:12:54;5.20;;;3.20;;
15340;SDS011;7770;52.158;5.372;2022-07-25T11:15:40;6.68;;;3.47;;
15340;SDS011;7770;52.158;5.372;2022-07-25T11:18:35;5.80;;;3.50;;
15340;SDS011;7770;52.158;5.372;2022-07-25T11:21:24;5.13;;;3.45;;
15340;SDS011;7770;52.158;5.372;2022-07-25T11:24:10;5.60;;;3.45;;
15340;SDS011;7770;52.158;5.372;2022-07-25T11:26:57;5.88;;;3.33;;
15340;SDS011;7770;52.158;5.372;2022-07-25T11:29:43;5.15;;;4.18;;
15340;SDS011;7770;52.158;5.372;2022-07-25T11:32:36;4.45;;;3.85;;
15340;SDS011;7770;52.158;5.372;2022-07-25T11:35:29;7.03;;;4.25;;
15340;SDS011;7770;52.158;5.372;2022-07-25T11:38:17;7.00;;;4.18;;
15340;SDS011;7770;52.158;5.372;2022-07-25T11:41:03;6.30;;;4.07;;
15340;SDS011;7770;52.158;5.372;2022-07-25T11:43:50;7.03;;;4.07;;
15340;SDS011;7770;52.158;5.372;2022-07-25T11:46:40;6.70;;;4.50;;
15340;SDS011;7770;52.158;5.372;2022-07-25T11:49:28;6.63;;;4.32;;
15340;SDS011;7770;52.158;5.372;2022-07-25T11:52:18;9.50;;;4.50;;
15340;SDS011;7770;52.158;5.372;2022-07-25T11:55:07;6.32;;;4.10;;
15340;SDS011;7770;52.158;5.372;2022-07-25T11:57:59;9.55;;;5.00;;
15340;SDS011;7770;52.158;5.372;2022-07-25T12:00:47;8.73;;;4.38;;
15340;SDS011;7770;52.158;5.372;2022-07-25T12:03:36;6.43;;;4.90;;
15340;SDS011;7770;52.158;5.372;2022-07-25T12:06:27;7.70;;;4.15;;
15340;SDS011;7770;52.158;5.372;2022-07-25T12:09:15;6.10;;;3.97;;
15340;SDS011;7770;52.158;5.372;2022-07-25T12:12:04;6.68;;;3.50;;
15340;SDS011;7770;52.158;5.372;2022-07-25T12:14:50;6.53;;;3.47;;
15340;SDS011;7770;52.158;5.372;2022-07-25T12:17:36;8.15;;;3.78;;
15340;SDS011;7770;52.158;5.372;2022-07-25T12:20:24;8.27;;;3.90;;
15340;SDS011;7770;52.158;5.372;2022-07-25T12:23:13;5.03;;;3.50;;
15340;SDS011;7770;52.158;5.372;2022-07-25T12:25:59;6.63;;;3.77;;
15340;SDS011;7770;52.158;5.372;2022-07-25T12:28:45;6.80;;;3.93;;
15340;SDS011;7770;52.158;5.372;2022-07-25T12:31:31;8.53;;;4.10;;
15340;SDS011;7770;52.158;5.372;2022-07-25T12:34:17;6.30;;;3.80;;
15340;SDS011;7770;52.158;5.372;2022-07-25T12:37:03;6.15;;;3.40;;
15340;SDS011;7770;52.158;5.372;2022-07-25T12:39:49;6.03;;;3.72;;
15340;SDS011;7770;52.158;5.372;2022-07-25T12:42:35;7.75;;;3.80;;
15340;SDS011;7770;52.158;5.372;2022-07-25T12:45:21;8.13;;;4.22;;
15340;SDS011;7770;52.158;5.372;2022-07-25T12:48:07;6.20;;;3.95;;
15340;SDS011;7770;52.158;5.372;2022-07-25T12:50:54;5.78;;;3.60;;
15340;SDS011;7770;52.158;5.372;2022-07-25T12:53:40;8.15;;;4.30;;
15340;SDS011;7770;52.158;5.372;2022-07-25T12:56:26;6.90;;;4.05;;
15340;SDS011;7770;52.158;5.372;2022-07-25T12:59:12;4.53;;;3.30;;
15340;SDS011;7770;52.158;5.372;2022-07-25T13:01:58;7.65;;;3.92;;
15340;SDS011;7770;52.158;5.372;2022-07-25T13:04:44;9.10;;;3.63;;
15340;SDS011;7770;52.158;5.372;2022-07-25T13:07:30;8.15;;;3.10;;
15340;SDS011;7770;52.158;5.372;2022-07-25T13:10:18;6.90;;;3.15;;
15340;SDS011;7770;52.158;5.372;2022-07-25T13:13:04;5.93;;;2.85;;
15340;SDS011;7770;52.158;5.372;2022-07-25T13:15:50;7.45;;;3.40;;
15340;SDS011;7770;52.158;5.372;2022-07-25T13:18:38;9.38;;;3.38;;
15340;SDS011;7770;52.158;5.372;2022-07-25T13:21:24;6.55;;;2.65;;
15340;SDS011;7770;52.158;5.372;2022-07-25T13:24:10;6.90;;;3.28;;
15340;SDS011;7770;52.158;5.372;2022-07-25T13:26:56;7.47;;;3.72;;
15340;SDS011;7770;52.158;5.372;2022-07-25T13:29:42;6.50;;;3.40;;
15340;SDS011;7770;52.158;5.372;2022-07-25T13:32:28;9.95;;;3.80;;
15340;SDS011;7770;52.158;5.372;2022-07-25T13:35:16;6.25;;;3.85;;
15340;SDS011;7770;52.158;5.372;2022-07-25T13:38:02;6.90;;;4.20;;
15340;SDS011;7770;52.158;5.372;2022-07-25T13:40:48;7.93;;;3.60;;
15340;SDS011;7770;52.158;5.372;2022-07-25T13:43:34;6.35;;;3.72;;
15340;SDS011;7770;52.158;5.372;2022-07-25T13:46:20;5.93;;;3.65;;
15340;SDS011;7770;52.158;5.372;2022-07-25T13:49:07;8.55;;;3.42;;
15340;SDS011;7770;52.158;5.372;2022-07-25T13:51:53;7.47;;;3.00;;
15340;SDS011;7770;52.158;5.372;2022-07-25T13:54:39;7.28;;;3.10;;
15340;SDS011;7770;52.158;5.372;2022-07-25T13:57:25;6.00;;;2.80;;
15340;SDS011;7770;52.158;5.372;2022-07-25T14:00:11;5.35;;;3.00;;
15340;SDS011;7770;52.158;5.372;2022-07-25T14:02:57;5.88;;;2.75;;
15340;SDS011;7770;52.158;5.372;2022-07-25T14:05:43;6.78;;;2.75;;
15340;SDS011;7770;52.158;5.372;2022-07-25T14:08:29;11.00;;;2.92;;
15340;SDS011;7770;52.158;5.372;2022-07-25T14:11:16;7.60;;;2.78;;
15340;SDS011;7770;52.158;5.372;2022-07-25T14:14:02;9.40;;;2.83;;
15340;SDS011;7770;52.158;5.372;2022-07-25T14:16:48;7.63;;;3.00;;
15340;SDS011;7770;52.158;5.372;2022-07-25T14:19:34;6.68;;;2.92;;
15340;SDS011;7770;52.158;5.372;2022-07-25T14:22:20;12.32;;;3.30;;
15340;SDS011;7770;52.158;5.372;2022-07-25T14:25:07;5.93;;;2.60;;
15340;SDS011;7770;52.158;5.372;2022-07-25T14:27:54;6.88;;;2.53;;
15340;SDS011;7770;52.158;5.372;2022-07-25T14:30:40;5.53;;;2.38;;
15340;SDS011;7770;52.158;5.372;2022-07-25T14:33:26;8.38;;;3.10;;
15340;SDS011;7770;52.158;5.372;2022-07-25T14:36:12;7.30;;;2.72;;
15340;SDS011;7770;52.158;5.372;2022-07-25T14:38:58;5.57;;;2.60;;
15340;SDS011;7770;52.158;5.372;2022-07-25T14:41:46;6.10;;;2.20;;
15340;SDS011;7770;52.158;5.372;2022-07-25T14:44:32;3.15;;;2.00;;
15340;SDS011;7770;52.158;5.372;2022-07-25T14:47:18;6.20;;;1.83;;
15340;SDS011;7770;52.158;5.372;2022-07-25T14:50:05;8.25;;;2.28;;
15340;SDS011;7770;52.158;5.372;2022-07-25T14:52:52;5.13;;;2.30;;
15340;SDS011;7770;52.158;5.372;2022-07-25T14:55:38;6.43;;;2.17;;
15340;SDS011;7770;52.158;5.372;2022-07-25T14:58:24;5.85;;;2.10;;
15340;SDS011;7770;52.158;5.372;2022-07-25T15:01:10;7.50;;;2.22;;
15340;SDS011;7770;52.158;5.372;2022-07-25T15:03:56;5.78;;;1.90;;
15340;SDS011;7770;52.158;5.372;2022-07-25T15:06:42;4.47;;;1.95;;
15340;SDS011;7770;52.158;5.372;2022-07-25T15:09:28;2.47;;;1.70;;
15340;SDS011;7770;52.158;5.372;2022-07-25T15:12:14;4.50;;;2.07;;
15340;SDS011;7770;52.158;5.372;2022-07-25T15:15:01;2.70;;;1.90;;
15340;SDS011;7770;52.158;5.372;2022-07-25T15:17:47;5.07;;;1.90;;
15340;SDS011;7770;52.158;5.372;2022-07-25T15:20:34;3.63;;;1.88;;
15340;SDS011;7770;52.158;5.372;2022-07-25T15:23:20;5.47;;;2.03;;
15340;SDS011;7770;52.158;5.372;2022-07-25T15:26:08;4.60;;;2.10;;
15340;SDS011;7770;52.158;5.372;2022-07-25T15:28:55;4.10;;;2.00;;
15340;SDS011;7770;52.158;5.372;2022-07-25T15:31:41;3.73;;;2.03;;
15340;SDS011;7770;52.158;5.372;2022-07-25T15:34:27;3.93;;;1.90;;
15340;SDS011;7770;52.158;5.372;2022-07-25T15:37:13;4.17;;;2.30;;
15340;SDS011;7770;52.158;5.372;2022-07-25T15:39:59;3.37;;;1.90;;
15340;SDS011;7770;52.158;5.372;2022-07-25T15:42:45;6.60;;;2.37;;
15340;SDS011;7770;52.158;5.372;2022-07-25T15:45:31;3.30;;;1.80;;
15340;SDS011;7770;52.158;5.372;2022-07-25T15:48:18;6.10;;;2.03;;
15340;SDS011;7770;52.158;5.372;2022-07-25T15:51:04;6.53;;;2.07;;
15340;SDS011;7770;52.158;5.372;2022-07-25T15:53:51;3.27;;;1.80;;
15340;SDS011;7770;52.158;5.372;2022-07-25T15:56:37;5.07;;;1.87;;
15340;SDS011;7770;52.158;5.372;2022-07-25T15:59:23;3.67;;;1.90;;
15340;SDS011;7770;52.158;5.372;2022-07-25T16:02:09;5.60;;;2.20;;
15340;SDS011;7770;52.158;5.372;2022-07-25T16:04:57;7.07;;;2.00;;
15340;SDS011;7770;52.158;5.372;2022-07-25T16:07:43;4.57;;;2.10;;
15340;SDS011;7770;52.158;5.372;2022-07-25T16:10:30;3.17;;;1.90;;
15340;SDS011;7770;52.158;5.372;2022-07-25T16:13:17;4.13;;;1.90;;
15340;SDS011;7770;52.158;5.372;2022-07-25T16:16:04;4.53;;;2.00;;
15340;SDS011;7770;52.158;5.372;2022-07-25T16:18:50;5.07;;;1.90;;
15340;SDS011;7770;52.158;5.372;2022-07-25T16:21:36;5.00;;;1.87;;
15340;SDS011;7770;52.158;5.372;2022-07-25T16:24:24;6.07;;;2.30;;
15340;SDS011;7770;52.158;5.372;2022-07-25T16:27:10;4.03;;;1.83;;
15340;SDS011;7770;52.158;5.372;2022-07-25T16:29:56;6.93;;;2.00;;
15340;SDS011;7770;52.158;5.372;2022-07-25T16:32:42;4.03;;;1.83;;
15340;SDS011;7770;52.158;5.372;2022-07-25T16:35:29;7.83;;;2.10;;
15340;SDS011;7770;52.158;5.372;2022-07-25T16:38:16;6.10;;;2.07;;
15340;SDS011;7770;52.158;5.372;2022-07-25T16:41:02;7.23;;;2.20;;
15340;SDS011;7770;52.158;5.372;2022-07-25T16:43:49;6.60;;;1.90;;
15340;SDS011;7770;52.158;5.372;2022-07-25T16:46:35;4.10;;;1.70;;
15340;SDS011;7770;52.158;5.372;2022-07-25T16:49:21;5.53;;;2.00;;
15340;SDS011;7770;52.158;5.372;2022-07-25T16:52:08;8.93;;;2.83;;